Julian, WV (25529)

12:00 PM EDT on May 06, 2015 (GMT -0400)
SOD | | Change Station
CLOSE
Current Station
Personal Weather Station
Location: Sod, WV
Elevation: 771 ft
Nearby Weather Stations

Elev 771 ft 38.27 °N, 81.89 °W | Updated 14 seconds ago

Partly Cloudy
Partly Cloudy
81.2 °F
Feels Like 81 °F
N
2.0
Wind Variable Wind from NW
Gusts 6.0 mph

Today
High -- | Low -- °F
--% Chance of Precip.
Yesterday
High -- | Low -- °F
Precip. -- in
6:25 AM 8:23 PM
Waning Gibbous, 93% visible
Pressure 30.20 in
Visibility 10.0 miles
Clouds Few 6000 ft
Heat Index 81 °F
Dew Point 58 °F
Humidity 45%
Rainfall 0.00 in
Snow Depth Not available.
UV 9 out of 12
Pollen 9.50 out of 12
Air Quality Not available.
Flu Activity Sporadic
METAR KCRW 061554Z 25003KT 10SM FEW060 27/12 A3022 RMK AO2 SLP226 T02720122

More Conditions Fewer Conditions

Pressure 30.20 in
Visibility 10.0 miles
Clouds Few 6000 ft
Heat Index 81 °F
Dew Point 58 °F
Humidity 45%
Rainfall 0.00 in
Snow Depth Not available.
UV 9 out of 12
Pollen 9.50 out of 12
Air Quality Not available.
Flu Activity Sporadic
METAR KCRW 061554Z 25003KT 10SM FEW060 27/12 A3022 RMK AO2 SLP226 T02720122

More Conditions Fewer Conditions

10-Day Weather Forecast

Almanac

Astronomy

May. 06, 2015 Rise Set
Actual Time
Civil Twilight
Nautical Twilight
Astronomical Twilight
Moon
Length of Visible Light
Length of Day
Tomorrow will be .
, % of the Moon is Illuminated

Today's Extremes

State Highs State Lows

Community

WunderPhotos

Upload Photos

1,818,938 photos uploaded!

WunderBlogs® & News

Nearby

Air Quality

  Air Quality AQ Index Pollutant
Not available.

Snow Depth

Station Depth Elevation

Earthquake Activity

City Distance Mag. Time & Date
Minimum magnitude displayed is 2.5.

Coastal Water Temperatures

Place Temperature

Stations

Nearby Weather Stations

Station Location Temp. Windchill Dew Point Humidity Wind Precip. Elev Updated Type